createdAt,value
2019-06-01T00:43:22.720Z,10.80
2019-06-01T00:49:29.045Z,9.80
2019-06-01T01:22:38.578Z,10.63
2019-06-01T04:08:27.898Z,27.60
2019-06-01T04:11:01.622Z,29.70
2019-06-01T04:13:35.567Z,37.33
2019-06-01T04:16:09.993Z,25.15
2019-06-01T04:18:44.113Z,22.20
2019-06-01T04:21:17.665Z,23.57
2019-06-01T04:23:51.133Z,24.52
2019-06-01T04:26:24.633Z,22.07
2019-06-01T04:28:58.176Z,21.82
2019-06-01T04:31:31.690Z,22.65
2019-06-01T04:34:05.303Z,20.68
2019-06-01T04:36:38.988Z,26.05
2019-06-01T04:39:13.764Z,30.57
2019-06-01T04:41:48.966Z,32.80
2019-06-01T04:57:13.038Z,16.73
2019-06-01T05:06:02.424Z,17.27
2019-06-01T05:08:45.552Z,17.10
2019-06-01T05:11:22.005Z,17.40
2019-06-01T05:14:23.954Z,17.57
2019-06-01T05:17:01.222Z,18.95
2019-06-01T05:19:35.785Z,19.30
2019-06-01T05:35:22.008Z,19.32
2019-06-01T05:37:55.336Z,20.82
2019-06-01T05:40:28.924Z,20.48
2019-06-01T05:43:02.358Z,21.95
2019-06-01T05:45:35.928Z,20.60
2019-06-01T05:48:12.046Z,18.52
2019-06-01T05:50:44.614Z,19.35
2019-06-01T05:53:19.863Z,21.35
2019-06-01T05:55:53.653Z,20.30
2019-06-01T05:58:29.279Z,19.32
2019-06-01T06:01:02.641Z,19.92
2019-06-01T06:03:40.226Z,18.82
2019-06-01T06:06:12.214Z,20.65
2019-06-01T06:08:46.097Z,18.30
2019-06-01T06:11:20.951Z,17.05
2019-06-01T06:13:55.066Z,16.45
2019-06-01T06:16:28.979Z,17.55
2019-06-01T06:19:02.864Z,15.75
2019-06-01T06:21:36.473Z,16.00
2019-06-01T06:24:10.163Z,15.40
2019-06-01T06:26:43.930Z,15.32
2019-06-01T06:29:18.948Z,13.18
2019-06-01T06:31:52.759Z,12.85
2019-06-01T06:34:26.513Z,12.40
2019-06-01T06:37:00.328Z,12.37
2019-06-01T06:39:40.640Z,12.03
2019-06-01T06:42:18.608Z,11.35
2019-06-01T06:44:58.178Z,11.25
2019-06-01T06:47:32.705Z,10.50
2019-06-01T06:50:06.900Z,9.15
2019-06-01T06:52:40.606Z,9.73
2019-06-01T06:55:15.649Z,9.25
2019-06-01T06:57:50.029Z,8.93
2019-06-01T07:11:59.504Z,8.33
2019-06-01T07:14:21.550Z,6.35
2019-06-01T07:17:31.806Z,5.37
2019-06-01T07:20:07.156Z,5.83
2019-06-01T07:22:46.073Z,5.92
2019-06-01T07:25:22.649Z,5.97
2019-06-01T07:27:59.222Z,6.45
2019-06-01T07:30:49.603Z,5.60
2019-06-01T07:33:17.841Z,6.08
2019-06-01T07:35:56.679Z,6.22
2019-06-01T07:38:33.982Z,6.40
2019-06-01T07:41:10.655Z,6.45
2019-06-01T07:43:44.800Z,6.92
2019-06-01T07:46:18.483Z,7.10
2019-06-01T07:48:52.094Z,6.62
2019-06-01T07:51:27.382Z,5.58
2019-06-01T07:54:00.932Z,6.67
2019-06-01T07:56:34.465Z,6.62
2019-06-01T07:59:08.440Z,6.03
2019-06-01T08:01:42.005Z,6.55
2019-06-01T08:04:15.875Z,6.50
2019-06-01T08:06:50.302Z,5.45
2019-06-01T08:09:24.591Z,5.75
2019-06-01T08:12:01.507Z,5.55
2019-06-01T08:14:35.063Z,5.12
2019-06-01T08:17:08.666Z,4.28
2019-06-01T08:19:42.118Z,5.22
2019-06-01T08:22:15.489Z,4.50
2019-06-01T08:24:48.774Z,4.15
2019-06-01T08:27:22.529Z,5.28
2019-06-01T08:30:03.570Z,4.30
2019-06-01T08:32:38.969Z,5.40
2019-06-01T08:35:13.767Z,5.58
2019-06-01T08:38:23.383Z,4.97
2019-06-01T08:44:10.018Z,3.80
2019-06-01T08:46:43.675Z,5.47
2019-06-01T09:05:53.553Z,5.15
2019-06-01T09:08:27.186Z,4.85
2019-06-01T09:11:00.695Z,3.50
2019-06-01T09:13:35.522Z,3.60
2019-06-01T09:16:09.359Z,3.85
2019-06-01T09:18:42.885Z,3.87
2019-06-01T09:21:18.289Z,4.45
2019-06-01T09:23:52.282Z,4.78
2019-06-01T09:26:26.300Z,4.47
2019-06-01T09:29:00.381Z,4.67
2019-06-01T09:31:34.394Z,3.42
2019-06-01T09:34:08.028Z,4.05
2019-06-01T09:36:41.621Z,4.22
2019-06-01T09:39:15.193Z,4.92
2019-06-01T09:41:49.780Z,3.40
2019-06-01T09:44:23.925Z,3.60
2019-06-01T09:46:59.522Z,3.92
2019-06-01T09:49:34.110Z,4.30
2019-06-01T09:52:12.038Z,4.28
2019-06-01T09:54:43.494Z,4.00
2019-06-01T09:57:17.079Z,3.87
2019-06-01T10:04:39.351Z,3.55
2019-06-01T10:07:13.196Z,3.55
2019-06-01T10:09:46.753Z,4.42
2019-06-01T10:12:20.721Z,4.37
2019-06-01T10:14:55.282Z,4.20
2019-06-01T10:17:30.451Z,4.25
2019-06-01T10:20:05.629Z,4.60
2019-06-01T10:22:39.545Z,4.12
2019-06-01T10:25:13.374Z,4.30
2019-06-01T10:27:46.905Z,4.45
2019-06-01T10:30:20.467Z,4.40
2019-06-01T10:32:54.367Z,4.90
2019-06-01T10:35:27.577Z,4.83
2019-06-01T10:38:00.797Z,6.45
2019-06-01T10:40:35.352Z,5.33
2019-06-01T10:43:09.201Z,5.42
2019-06-01T10:45:42.363Z,5.10
2019-06-01T10:48:16.616Z,4.35
2019-06-01T10:50:50.101Z,5.05
2019-06-01T10:53:23.337Z,4.37
2019-06-01T10:55:56.650Z,4.85
2019-06-01T10:58:29.884Z,4.75
2019-06-01T11:01:03.361Z,5.45
2019-06-01T11:03:36.809Z,5.12
2019-06-01T11:06:10.296Z,5.55
2019-06-01T11:08:43.955Z,5.55
2019-06-01T11:11:18.531Z,5.62
2019-06-01T11:13:59.126Z,5.53
2019-06-01T11:16:41.027Z,5.60
2019-06-01T11:19:17.926Z,5.50
2019-06-01T11:21:54.449Z,5.20
2019-06-01T11:24:35.824Z,4.92
2019-06-01T11:27:10.636Z,5.03
2019-06-01T11:29:51.277Z,4.70
2019-06-01T11:32:19.535Z,4.70
2019-06-01T11:34:53.188Z,5.00
2019-06-01T11:37:26.324Z,4.50
2019-06-01T11:39:59.606Z,4.80
2019-06-01T11:42:39.221Z,4.80
2019-06-01T11:45:13.035Z,4.30
2019-06-01T11:47:46.945Z,4.92
2019-06-01T11:50:20.368Z,4.47
2019-06-01T11:52:53.670Z,4.70
2019-06-01T11:55:27.036Z,4.53
2019-06-01T11:58:00.388Z,4.78
2019-06-01T12:00:33.636Z,4.37
2019-06-01T12:03:06.964Z,4.80
2019-06-01T12:05:40.173Z,4.40
2019-06-01T12:08:13.392Z,4.30
2019-06-01T12:10:51.064Z,4.90
2019-06-01T12:13:24.322Z,4.55
2019-06-01T12:15:57.510Z,4.40
2019-06-01T12:18:30.712Z,5.37
2019-06-01T12:21:03.959Z,5.08
2019-06-01T12:23:37.407Z,4.35
2019-06-01T12:26:10.572Z,5.25
2019-06-01T12:28:44.102Z,5.30
2019-06-01T12:31:18.263Z,4.78
2019-06-01T12:33:53.167Z,4.45
2019-06-01T12:36:26.601Z,4.40
2019-06-01T12:38:59.898Z,4.40
2019-06-01T12:41:33.374Z,3.95
2019-06-01T12:44:14.256Z,3.75
2019-06-01T12:46:48.997Z,3.85
2019-06-01T12:49:22.635Z,3.50
2019-06-01T12:51:57.130Z,3.90
2019-06-01T12:54:31.590Z,4.45
2019-06-01T12:57:05.811Z,4.35
2019-06-01T12:59:41.055Z,3.87
2019-06-01T13:02:15.553Z,3.85
2019-06-01T13:04:49.206Z,3.60
2019-06-01T13:07:22.698Z,3.10
2019-06-01T13:09:56.197Z,3.67
2019-06-01T13:12:29.396Z,3.22
2019-06-01T13:15:02.527Z,3.33
2019-06-01T13:17:36.823Z,3.12
2019-06-01T13:20:10.438Z,3.47
2019-06-01T13:22:43.623Z,3.37
2019-06-01T13:25:17.063Z,3.95
2019-06-01T13:27:50.736Z,3.47
2019-06-01T13:30:23.864Z,3.25
2019-06-01T13:32:57.037Z,3.40
2019-06-01T13:35:30.103Z,3.35
2019-06-01T13:38:11.533Z,3.60
2019-06-01T13:40:37.964Z,3.20
2019-06-01T13:43:10.996Z,6.08
2019-06-01T13:45:45.226Z,5.60
2019-06-01T13:48:18.556Z,3.80
2019-06-01T13:50:52.038Z,4.92
2019-06-01T13:53:25.215Z,3.70
2019-06-01T13:55:58.237Z,3.75
2019-06-01T13:58:31.420Z,3.30
2019-06-01T14:01:04.578Z,3.65
2019-06-01T14:03:38.766Z,3.58
2019-06-01T14:06:11.881Z,3.80
2019-06-01T14:08:45.067Z,3.40
2019-06-01T14:11:18.110Z,3.67
2019-06-01T14:13:52.064Z,3.60
2019-06-01T14:16:25.386Z,3.77
2019-06-01T14:18:58.471Z,3.67
2019-06-01T14:21:31.607Z,3.47
2019-06-01T14:24:04.712Z,3.12
2019-06-01T14:26:37.781Z,3.47
2019-06-01T14:29:10.926Z,3.33
2019-06-01T14:31:44.721Z,3.05
2019-06-01T14:34:17.838Z,2.83
2019-06-01T14:36:50.950Z,3.12
2019-06-01T14:39:24.330Z,2.90
2019-06-01T14:41:57.715Z,6.05
2019-06-01T14:44:30.925Z,4.00
2019-06-01T14:47:06.156Z,3.35
2019-06-01T14:49:38.841Z,2.80
2019-06-01T14:52:11.941Z,2.15
2019-06-01T14:54:45.055Z,2.33
2019-06-01T14:57:18.152Z,2.52
2019-06-01T14:59:51.955Z,2.83
2019-06-01T15:02:25.259Z,2.10
2019-06-01T15:04:58.700Z,2.60
2019-06-01T15:07:31.873Z,2.65
2019-06-01T15:10:06.171Z,2.20
2019-06-01T15:12:39.433Z,2.70
2019-06-01T15:15:12.717Z,2.70
2019-06-01T15:17:45.838Z,2.85
2019-06-01T15:20:19.145Z,3.10
2019-06-01T15:22:52.677Z,2.37
2019-06-01T15:25:26.969Z,2.30
2019-06-01T15:28:00.067Z,2.08
2019-06-01T15:30:33.251Z,2.90
2019-06-01T15:33:06.483Z,2.77
2019-06-01T15:35:39.843Z,2.33
2019-06-01T15:38:12.898Z,2.35
2019-06-01T15:40:46.010Z,2.33
2019-06-01T15:43:19.711Z,2.42
2019-06-01T15:45:55.277Z,2.65
2019-06-01T15:48:28.533Z,2.50
2019-06-01T15:51:07.003Z,2.40
2019-06-01T15:53:36.419Z,2.45
2019-06-01T15:56:09.521Z,2.20
2019-06-01T15:58:52.483Z,2.27
2019-06-01T16:01:17.447Z,2.08
2019-06-01T16:03:50.731Z,2.10
2019-06-01T16:06:24.037Z,2.62
2019-06-01T16:08:57.349Z,2.02
2019-06-01T16:11:30.427Z,2.40
2019-06-01T16:14:03.982Z,2.55
2019-06-01T16:16:37.291Z,2.55
2019-06-01T16:19:10.434Z,4.65
2019-06-01T16:21:43.609Z,3.77
2019-06-01T16:24:16.725Z,3.40
2019-06-01T16:26:49.839Z,2.30
2019-06-01T16:29:22.948Z,2.87
2019-06-01T16:31:56.643Z,3.77
2019-06-01T16:34:30.963Z,3.20
2019-06-01T16:37:05.232Z,3.02
2019-06-01T16:39:38.550Z,3.47
2019-06-01T16:42:11.657Z,3.40
2019-06-01T16:44:45.759Z,2.98
2019-06-01T16:47:18.808Z,4.33
2019-06-01T16:49:51.918Z,5.40
2019-06-01T16:52:25.352Z,5.30
2019-06-01T16:54:58.549Z,4.22
2019-06-01T16:57:31.584Z,3.10
2019-06-01T17:00:04.981Z,4.80
2019-06-01T17:02:38.377Z,5.60
2019-06-01T17:05:14.310Z,5.35
2019-06-01T17:07:47.406Z,4.62
2019-06-01T17:10:26.147Z,5.15
2019-06-01T17:12:56.830Z,3.08
2019-06-01T17:15:30.170Z,5.28
2019-06-01T17:18:06.569Z,3.90
2019-06-01T17:20:48.775Z,3.00
2019-06-01T17:23:27.851Z,3.90
2019-06-01T17:25:58.276Z,4.70
2019-06-01T17:28:31.593Z,4.10
2019-06-01T17:31:06.883Z,3.98
2019-06-01T17:33:40.674Z,3.70
2019-06-01T17:36:13.855Z,3.22
2019-06-01T17:38:46.986Z,3.50
2019-06-01T17:41:20.030Z,3.77
2019-06-01T17:43:53.199Z,3.20
2019-06-01T17:46:26.388Z,4.92
2019-06-01T17:49:00.004Z,4.85
2019-06-01T17:51:33.170Z,4.12
2019-06-01T17:54:07.072Z,4.87
2019-06-01T17:56:41.093Z,4.30
2019-06-01T17:59:14.249Z,4.65
2019-06-01T18:01:47.471Z,4.70
2019-06-01T18:04:20.682Z,4.72
2019-06-01T18:06:54.850Z,5.30
2019-06-01T18:09:27.895Z,5.45
2019-06-01T18:12:01.955Z,5.12
2019-06-01T18:14:35.464Z,4.75
2019-06-01T18:17:08.589Z,4.05
2019-06-01T18:19:41.701Z,4.08
2019-06-01T18:22:16.644Z,3.70
2019-06-01T18:24:53.200Z,3.98
2019-06-01T18:27:30.477Z,4.47
2019-06-01T18:30:08.728Z,4.22
2019-06-01T18:32:45.704Z,4.62
2019-06-01T18:35:22.854Z,5.12
2019-06-01T18:38:00.051Z,5.60
2019-06-01T18:40:37.844Z,5.72
2019-06-01T18:43:19.310Z,7.37
2019-06-01T18:45:56.285Z,6.65
2019-06-01T18:48:31.843Z,5.90
2019-06-01T18:51:08.359Z,5.55
2019-06-01T18:53:44.774Z,7.10
2019-06-01T18:56:21.322Z,7.35
2019-06-01T18:58:54.872Z,6.37
2019-06-01T19:01:27.975Z,4.85
2019-06-01T19:04:00.999Z,5.53
2019-06-01T19:06:34.234Z,4.87
2019-06-01T19:09:09.894Z,5.55
2019-06-01T19:11:43.074Z,6.17
2019-06-01T19:14:16.186Z,7.87
2019-06-01T19:16:49.297Z,8.38
2019-06-01T19:19:22.359Z,8.68
2019-06-01T19:21:55.396Z,8.45
2019-06-01T19:24:28.448Z,8.85
2019-06-01T19:27:01.634Z,7.60
2019-06-01T19:29:34.817Z,7.60
2019-06-01T19:32:08.796Z,7.67
2019-06-01T19:34:42.146Z,8.40
2019-06-01T19:37:15.328Z,7.37
2019-06-01T19:39:49.155Z,8.10
2019-06-01T19:42:22.373Z,9.55
2019-06-01T19:44:55.565Z,10.10
2019-06-01T19:47:29.972Z,9.38
2019-06-01T19:50:03.164Z,9.80
2019-06-01T19:52:36.361Z,11.03
2019-06-01T19:55:10.724Z,13.38
2019-06-01T19:58:33.957Z,13.05
2019-06-01T20:01:10.131Z,14.58
2019-06-01T20:03:43.382Z,13.58
2019-06-01T20:06:17.049Z,11.15
2019-06-01T20:08:50.264Z,9.25
2019-06-01T20:11:23.441Z,9.95
2019-06-01T20:13:56.558Z,9.88
2019-06-01T20:16:29.767Z,11.45
2019-06-01T20:19:03.023Z,11.00
2019-06-01T20:21:36.218Z,11.50
2019-06-01T20:24:09.376Z,14.00
2019-06-01T20:26:48.934Z,10.75
2019-06-01T20:29:17.664Z,9.18
2019-06-01T20:31:50.931Z,9.25
2019-06-01T20:34:24.108Z,8.58
2019-06-01T20:36:57.286Z,10.32
2019-06-01T20:39:30.464Z,11.12
2019-06-01T20:42:20.214Z,16.15
2019-06-01T20:44:38.369Z,12.88
2019-06-01T20:47:12.509Z,12.98
2019-06-01T20:49:45.800Z,17.60
2019-06-01T20:52:19.093Z,24.47
2019-06-01T20:54:52.328Z,24.75
2019-06-01T20:57:25.457Z,26.20
2019-06-01T20:59:58.781Z,27.80
2019-06-01T21:02:31.894Z,26.75
2019-06-01T21:05:06.724Z,23.22
2019-06-01T21:07:39.943Z,17.60
2019-06-01T21:10:14.087Z,17.52
2019-06-01T21:12:47.448Z,17.50
2019-06-01T21:15:21.347Z,16.42
2019-06-01T21:17:54.637Z,15.90
2019-06-01T21:20:30.055Z,15.28
2019-06-01T21:23:02.957Z,12.95
2019-06-01T21:25:36.076Z,12.47
2019-06-01T21:28:14.027Z,12.18
2019-06-01T21:30:44.213Z,12.33
2019-06-01T21:33:19.736Z,10.60
2019-06-01T21:35:53.057Z,10.40
2019-06-01T21:38:26.189Z,11.12
2019-06-01T21:40:59.360Z,10.60
2019-06-01T21:43:35.381Z,9.93
2019-06-01T21:46:07.279Z,8.40
2019-06-01T21:48:40.404Z,9.00
2019-06-01T21:51:13.530Z,8.78
2019-06-01T21:53:46.553Z,9.58
2019-06-01T21:56:20.780Z,9.83
2019-06-01T21:58:54.474Z,10.98
2019-06-01T22:01:27.666Z,10.32
2019-06-01T22:04:00.762Z,10.72
2019-06-01T22:06:33.955Z,42.27
2019-06-01T22:09:08.270Z,61.42
2019-06-01T22:11:41.472Z,83.78
2019-06-01T22:14:14.586Z,89.42
2019-06-01T22:16:47.780Z,120.87
2019-06-01T22:19:21.606Z,130.57
2019-06-01T22:21:54.743Z,145.53
2019-06-01T22:24:28.332Z,149.12
2019-06-01T22:27:01.494Z,164.22
2019-06-01T22:29:34.654Z,114.20
2019-06-01T22:32:07.774Z,75.57
2019-06-01T22:34:40.915Z,104.45
2019-06-01T22:37:13.985Z,132.00
2019-06-01T22:39:47.172Z,115.50
2019-06-01T22:42:20.313Z,110.05
2019-06-01T22:44:53.501Z,102.32
2019-06-01T22:47:26.742Z,97.15
2019-06-01T22:49:59.948Z,92.62
2019-06-01T22:52:33.086Z,66.02
2019-06-01T22:55:07.497Z,52.05
2019-06-01T22:57:43.117Z,52.83
2019-06-01T23:00:16.790Z,71.72
2019-06-01T23:02:50.093Z,70.28
2019-06-01T23:05:23.307Z,64.87
2019-06-01T23:07:56.640Z,36.88
2019-06-01T23:10:33.967Z,35.03
2019-06-01T23:13:04.717Z,34.85
2019-06-01T23:15:38.116Z,26.95
2019-06-01T23:18:11.562Z,22.48
2019-06-01T23:20:44.722Z,22.80
2019-06-01T23:23:17.904Z,21.77
2019-06-01T23:25:51.271Z,23.45
2019-06-01T23:28:24.398Z,24.77
2019-06-01T23:30:57.431Z,26.02
2019-06-01T23:33:30.992Z,25.57
2019-06-01T23:36:04.199Z,24.32
2019-06-01T23:38:37.257Z,25.55
2019-06-01T23:41:10.438Z,25.52
2019-06-01T23:43:43.619Z,24.55
2019-06-01T23:46:16.742Z,25.92
2019-06-01T23:48:50.066Z,26.10
2019-06-01T23:51:23.482Z,28.00
2019-06-01T23:53:56.681Z,27.07
2019-06-01T23:56:29.834Z,24.40
2019-06-01T23:59:02.940Z,23.90
